createdAt,value
2023-05-19T00:00:01.098Z,1025.03
2023-05-19T00:00:15.081Z,1025.02
2023-05-19T00:00:29.301Z,1025.03
2023-05-19T00:00:44.581Z,1025.03
2023-05-19T00:01:11.625Z,1025.03
2023-05-19T00:01:25.643Z,1025.04
2023-05-19T00:01:39.660Z,1025.05
2023-05-19T00:01:53.701Z,1025.02
2023-05-19T00:02:07.752Z,1025.04
2023-05-19T00:02:21.804Z,1025.03
2023-05-19T00:02:35.905Z,1025.03
2023-05-19T00:02:50.007Z,1025.02
2023-05-19T00:03:04.124Z,1025.01
2023-05-19T00:03:32.176Z,1025.03
2023-05-19T00:03:46.231Z,1025.04
2023-05-19T00:04:00.232Z,1025.04
2023-05-19T00:04:14.229Z,1025.03
2023-05-19T00:04:42.207Z,1025.02
2023-05-19T00:04:56.200Z,1025.01
2023-05-19T00:05:10.187Z,1025.02
2023-05-19T00:05:24.258Z,1025.02
2023-05-19T00:05:52.305Z,1025.00
2023-05-19T00:06:06.368Z,1025.01
2023-05-19T00:06:20.421Z,1025.01
2023-05-19T00:06:34.442Z,1025.01
2023-05-19T00:07:02.416Z,1025.01
2023-05-19T00:07:16.419Z,1025.02
2023-05-19T00:07:30.409Z,1025.02
2023-05-19T00:07:44.402Z,1025.00
2023-05-19T00:08:12.357Z,1025.01
2023-05-19T00:08:26.347Z,1025.02
2023-05-19T00:08:40.346Z,1025.00
2023-05-19T00:08:54.358Z,1025.01
2023-05-19T00:09:22.331Z,1024.99
2023-05-19T00:09:36.335Z,1024.98
2023-05-19T00:09:50.346Z,1024.97
2023-05-19T00:10:04.331Z,1024.97
2023-05-19T00:10:32.511Z,1024.98
2023-05-19T00:10:46.740Z,1024.99
2023-05-19T00:11:00.714Z,1024.99
2023-05-19T00:11:14.704Z,1024.99
2023-05-19T00:11:42.693Z,1024.98
2023-05-19T00:11:56.692Z,1024.98
2023-05-19T00:12:10.732Z,1024.98
2023-05-19T00:12:24.721Z,1024.99
2023-05-19T00:12:53.959Z,1024.99
2023-05-19T00:13:05.396Z,1024.99
2023-05-19T00:13:19.398Z,1024.97
2023-05-19T00:13:33.386Z,1024.96
2023-05-19T00:14:01.358Z,1024.97
2023-05-19T00:14:15.361Z,1024.97
2023-05-19T00:14:29.354Z,1024.95
2023-05-19T00:14:43.351Z,1024.96
2023-05-19T00:15:11.293Z,1024.97
2023-05-19T00:15:25.276Z,1024.98
2023-05-19T00:15:39.284Z,1024.97
2023-05-19T00:15:53.306Z,1024.98
2023-05-19T00:16:21.520Z,1024.98
2023-05-19T00:16:35.589Z,1024.98
2023-05-19T00:16:49.612Z,1024.97
2023-05-19T00:17:03.599Z,1024.97
2023-05-19T00:17:31.591Z,1024.98
2023-05-19T00:17:45.713Z,1024.98
2023-05-19T00:17:59.801Z,1024.97
2023-05-19T00:18:14.034Z,1024.97
2023-05-19T00:18:42.218Z,1024.97
2023-05-19T00:18:56.265Z,1024.96
2023-05-19T00:19:10.754Z,1024.97
2023-05-19T00:19:25.925Z,1024.96
2023-05-19T00:19:53.930Z,1024.96
2023-05-19T00:20:07.924Z,1024.96
2023-05-19T00:20:21.938Z,1024.95
2023-05-19T00:20:35.929Z,1024.96
2023-05-19T00:21:03.900Z,1024.95
2023-05-19T00:21:18.040Z,1024.95
2023-05-19T00:21:32.061Z,1024.94
2023-05-19T00:21:46.055Z,1024.94
2023-05-19T00:22:14.019Z,1024.94
2023-05-19T00:22:28.034Z,1024.94
2023-05-19T00:22:42.010Z,1024.94
2023-05-19T00:22:56.009Z,1024.94
2023-05-19T00:23:23.987Z,1024.94
2023-05-19T00:23:37.978Z,1024.93
2023-05-19T00:23:51.985Z,1024.93
2023-05-19T00:24:05.971Z,1024.92
2023-05-19T00:24:33.963Z,1024.91
2023-05-19T00:24:47.955Z,1024.91
2023-05-19T00:25:01.928Z,1024.91
2023-05-19T00:25:15.917Z,1024.90
2023-05-19T00:25:43.900Z,1024.92
2023-05-19T00:25:57.893Z,1024.91
2023-05-19T00:26:11.907Z,1024.92
2023-05-19T00:26:25.893Z,1024.90
2023-05-19T00:26:53.838Z,1024.91
2023-05-19T00:27:07.826Z,1024.90
2023-05-19T00:27:21.822Z,1024.90
2023-05-19T00:27:35.822Z,1024.89
2023-05-19T00:28:03.799Z,1024.87
2023-05-19T00:28:17.798Z,1024.87
2023-05-19T00:28:31.781Z,1024.87
2023-05-19T00:28:45.775Z,1024.86
2023-05-19T00:29:13.742Z,1024.86
2023-05-19T00:29:27.740Z,1024.86
2023-05-19T00:29:41.721Z,1024.84
2023-05-19T00:29:55.729Z,1024.84
2023-05-19T00:30:23.707Z,1024.83
2023-05-19T00:30:37.707Z,1024.83
2023-05-19T00:30:51.715Z,1024.84
2023-05-19T00:31:05.719Z,1024.84
2023-05-19T00:31:33.722Z,1024.86
2023-05-19T00:31:47.748Z,1024.88
2023-05-19T00:32:01.776Z,1024.87
2023-05-19T00:32:15.944Z,1024.87
2023-05-19T00:32:44.000Z,1024.85
2023-05-19T00:32:58.022Z,1024.85
2023-05-19T00:33:12.080Z,1024.86
2023-05-19T00:33:26.101Z,1024.84
2023-05-19T00:33:54.062Z,1024.85
2023-05-19T00:34:08.050Z,1024.85
2023-05-19T00:34:22.046Z,1024.86
2023-05-19T00:34:36.024Z,1024.85
2023-05-19T00:35:03.980Z,1024.86
2023-05-19T00:35:17.987Z,1024.85
2023-05-19T00:35:31.974Z,1024.86
2023-05-19T00:35:45.956Z,1024.85
2023-05-19T00:36:13.923Z,1024.85
2023-05-19T00:36:27.923Z,1024.85
2023-05-19T00:36:41.920Z,1024.81
2023-05-19T00:36:55.921Z,1024.83
2023-05-19T00:37:09.930Z,1024.82
2023-05-19T00:37:23.918Z,1024.82
2023-05-19T00:37:37.911Z,1024.81
2023-05-19T00:37:51.905Z,1024.81
2023-05-19T00:38:05.905Z,1024.80
2023-05-19T00:38:33.886Z,1024.81
2023-05-19T00:38:47.876Z,1024.80
2023-05-19T00:39:01.890Z,1024.80
2023-05-19T00:39:15.878Z,1024.78
2023-05-19T00:39:43.863Z,1024.76
2023-05-19T00:39:57.879Z,1024.78
2023-05-19T00:40:11.886Z,1024.78
2023-05-19T00:40:25.882Z,1024.76
2023-05-19T00:40:53.835Z,1024.77
2023-05-19T00:41:07.844Z,1024.75
2023-05-19T00:41:21.832Z,1024.74
2023-05-19T00:41:35.825Z,1024.74
2023-05-19T00:42:03.790Z,1024.75
2023-05-19T00:42:17.768Z,1024.75
2023-05-19T00:42:31.751Z,1024.74
2023-05-19T00:42:45.731Z,1024.73
2023-05-19T00:43:13.706Z,1024.72
2023-05-19T00:43:27.706Z,1024.72
2023-05-19T00:43:41.693Z,1024.73
2023-05-19T00:43:55.682Z,1024.72
2023-05-19T00:44:23.731Z,1024.70
2023-05-19T00:44:37.723Z,1024.69
2023-05-19T00:44:51.735Z,1024.68
2023-05-19T00:45:05.723Z,1024.69
2023-05-19T00:45:33.717Z,1024.70
2023-05-19T00:45:47.717Z,1024.71
2023-05-19T00:46:01.718Z,1024.69
2023-05-19T00:46:15.845Z,1024.69
2023-05-19T00:46:43.858Z,1024.67
2023-05-19T00:46:58.023Z,1024.67
2023-05-19T00:47:12.078Z,1024.66
2023-05-19T00:47:26.082Z,1024.66
2023-05-19T00:47:54.084Z,1024.67
2023-05-19T00:48:08.176Z,1024.66
2023-05-19T00:48:22.227Z,1024.66
2023-05-19T00:48:36.218Z,1024.66
2023-05-19T00:49:04.167Z,1024.67
2023-05-19T00:49:18.165Z,1024.67
2023-05-19T00:49:32.151Z,1024.67
2023-05-19T00:49:46.159Z,1024.66
2023-05-19T00:50:14.126Z,1024.65
2023-05-19T00:50:28.143Z,1024.65
2023-05-19T00:50:42.147Z,1024.66
2023-05-19T00:50:56.148Z,1024.67
2023-05-19T00:51:24.115Z,1024.65
2023-05-19T00:51:38.098Z,1024.65
2023-05-19T00:51:52.074Z,1024.64
2023-05-19T00:52:06.087Z,1024.62
2023-05-19T00:52:34.067Z,1024.63
2023-05-19T00:52:48.047Z,1024.64
2023-05-19T00:53:02.038Z,1024.65
2023-05-19T00:53:16.076Z,1024.65
2023-05-19T00:53:44.044Z,1024.61
2023-05-19T00:53:58.047Z,1024.60
2023-05-19T00:54:12.043Z,1024.61
2023-05-19T00:54:26.050Z,1024.61
2023-05-19T00:54:40.054Z,1024.62
2023-05-19T00:54:54.045Z,1024.61
2023-05-19T00:55:08.035Z,1024.61
2023-05-19T00:55:22.066Z,1024.61
2023-05-19T00:55:36.071Z,1024.59
2023-05-19T00:56:04.065Z,1024.58
2023-05-19T00:56:18.069Z,1024.60
2023-05-19T00:56:32.068Z,1024.59
2023-05-19T00:56:46.075Z,1024.59
2023-05-19T00:57:14.021Z,1024.58
2023-05-19T00:57:28.020Z,1024.59
2023-05-19T00:57:42.013Z,1024.59
2023-05-19T00:57:56.003Z,1024.58
2023-05-19T00:58:23.995Z,1024.56
2023-05-19T00:58:38.014Z,1024.55
2023-05-19T00:58:52.046Z,1024.55
2023-05-19T00:59:06.098Z,1024.55
2023-05-19T00:59:34.058Z,1024.54
2023-05-19T00:59:48.079Z,1024.54
2023-05-19T01:00:02.073Z,1024.54
2023-05-19T01:00:16.064Z,1024.53
2023-05-19T01:00:44.058Z,1024.52
2023-05-19T01:00:58.100Z,1024.52
2023-05-19T01:01:12.338Z,1024.51
2023-05-19T01:01:26.603Z,1024.52
2023-05-19T01:01:54.721Z,1024.51
2023-05-19T01:02:08.724Z,1024.52
2023-05-19T01:02:22.774Z,1024.51
2023-05-19T01:02:36.888Z,1024.50
2023-05-19T01:03:04.951Z,1024.51
2023-05-19T01:03:19.063Z,1024.50
2023-05-19T01:03:33.203Z,1024.51
2023-05-19T01:03:47.378Z,1024.49
2023-05-19T01:04:15.413Z,1024.50
2023-05-19T01:04:29.393Z,1024.49
2023-05-19T01:04:43.380Z,1024.49
2023-05-19T01:04:57.373Z,1024.50
2023-05-19T01:05:25.340Z,1024.49
2023-05-19T01:05:39.421Z,1024.50
2023-05-19T01:05:53.424Z,1024.50
2023-05-19T01:06:07.580Z,1024.50
2023-05-19T01:06:35.601Z,1024.50
2023-05-19T01:06:49.584Z,1024.47
2023-05-19T01:07:03.608Z,1024.47
2023-05-19T01:07:17.597Z,1024.48
2023-05-19T01:07:45.565Z,1024.47
2023-05-19T01:07:59.604Z,1024.48
2023-05-19T01:08:13.646Z,1024.49
2023-05-19T01:08:27.689Z,1024.49
2023-05-19T01:08:55.656Z,1024.46
2023-05-19T01:09:09.644Z,1024.46
2023-05-19T01:09:23.734Z,1024.46
2023-05-19T01:09:37.721Z,1024.47
2023-05-19T01:10:05.693Z,1024.47
2023-05-19T01:10:19.688Z,1024.47
2023-05-19T01:10:33.855Z,1024.47
2023-05-19T01:10:47.950Z,1024.49
2023-05-19T01:11:15.911Z,1024.48
2023-05-19T01:11:29.917Z,1024.48
2023-05-19T01:11:43.943Z,1024.48
2023-05-19T01:11:57.961Z,1024.47
2023-05-19T01:12:25.930Z,1024.47
2023-05-19T01:12:39.929Z,1024.46
2023-05-19T01:12:53.923Z,1024.48
2023-05-19T01:13:07.905Z,1024.49
2023-05-19T01:13:35.907Z,1024.46
2023-05-19T01:13:49.923Z,1024.48
2023-05-19T01:14:03.916Z,1024.48
2023-05-19T01:14:17.907Z,1024.48
2023-05-19T01:14:45.884Z,1024.48
2023-05-19T01:14:59.869Z,1024.48
2023-05-19T01:15:13.862Z,1024.48
2023-05-19T01:15:27.845Z,1024.49
2023-05-19T01:15:55.854Z,1024.48
2023-05-19T01:16:09.900Z,1024.48
2023-05-19T01:16:23.975Z,1024.49
2023-05-19T01:16:38.058Z,1024.49
2023-05-19T01:17:06.044Z,1024.47
2023-05-19T01:17:20.018Z,1024.47
2023-05-19T01:17:34.023Z,1024.47
2023-05-19T01:17:48.070Z,1024.48
2023-05-19T01:18:16.054Z,1024.49
2023-05-19T01:18:30.075Z,1024.49
2023-05-19T01:18:44.106Z,1024.49
2023-05-19T01:18:58.193Z,1024.49
2023-05-19T01:19:26.211Z,1024.48
2023-05-19T01:19:40.199Z,1024.49
2023-05-19T01:19:54.194Z,1024.48
2023-05-19T01:20:08.183Z,1024.47
2023-05-19T01:20:36.140Z,1024.49
2023-05-19T01:20:50.125Z,1024.48
2023-05-19T01:21:04.130Z,1024.50
2023-05-19T01:21:18.115Z,1024.49
2023-05-19T01:21:46.077Z,1024.48
2023-05-19T01:22:00.063Z,1024.49
2023-05-19T01:22:14.117Z,1024.48
2023-05-19T01:22:28.113Z,1024.49
2023-05-19T01:22:56.075Z,1024.51
2023-05-19T01:23:10.064Z,1024.51
2023-05-19T01:23:24.109Z,1024.50
2023-05-19T01:23:38.119Z,1024.51
2023-05-19T01:24:06.086Z,1024.51
2023-05-19T01:24:20.087Z,1024.51
2023-05-19T01:24:34.082Z,1024.51
2023-05-19T01:24:48.075Z,1024.50
2023-05-19T01:25:16.177Z,1024.51
2023-05-19T01:25:30.165Z,1024.52
2023-05-19T01:25:44.174Z,1024.53
2023-05-19T01:25:58.198Z,1024.52
2023-05-19T01:26:26.161Z,1024.53
2023-05-19T01:26:40.146Z,1024.53
2023-05-19T01:26:54.136Z,1024.53
2023-05-19T01:27:08.124Z,1024.52
2023-05-19T01:27:36.092Z,1024.53
2023-05-19T01:27:50.081Z,1024.55
2023-05-19T01:28:04.084Z,1024.54
2023-05-19T01:28:18.119Z,1024.54
2023-05-19T01:28:46.106Z,1024.55
2023-05-19T01:29:00.174Z,1024.55
2023-05-19T01:29:14.168Z,1024.55
2023-05-19T01:29:28.182Z,1024.56
2023-05-19T01:29:42.162Z,1024.56
2023-05-19T01:29:56.158Z,1024.54
2023-05-19T01:30:10.164Z,1024.54
2023-05-19T01:30:24.158Z,1024.54
2023-05-19T01:30:38.137Z,1024.54
2023-05-19T01:31:06.148Z,1024.55
2023-05-19T01:31:20.209Z,1024.55
2023-05-19T01:31:34.266Z,1024.56
2023-05-19T01:31:48.302Z,1024.56
2023-05-19T01:32:16.386Z,1024.57
2023-05-19T01:32:30.455Z,1024.57
2023-05-19T01:32:44.484Z,1024.56
2023-05-19T01:32:58.541Z,1024.56
2023-05-19T01:33:26.517Z,1024.57
2023-05-19T01:33:40.489Z,1024.57
2023-05-19T01:33:54.486Z,1024.57
2023-05-19T01:34:08.467Z,1024.57
2023-05-19T01:34:36.420Z,1024.57
2023-05-19T01:34:50.406Z,1024.57
2023-05-19T01:35:04.385Z,1024.56
2023-05-19T01:35:18.401Z,1024.56
2023-05-19T01:35:46.351Z,1024.56
2023-05-19T01:36:00.363Z,1024.58
2023-05-19T01:36:14.353Z,1024.58
2023-05-19T01:36:28.338Z,1024.58
2023-05-19T01:36:56.296Z,1024.57
2023-05-19T01:37:10.300Z,1024.58
2023-05-19T01:37:24.280Z,1024.58
2023-05-19T01:37:38.283Z,1024.58
2023-05-19T01:38:06.269Z,1024.58
2023-05-19T01:38:20.249Z,1024.58
2023-05-19T01:38:34.253Z,1024.58
2023-05-19T01:38:48.239Z,1024.59
2023-05-19T01:39:16.187Z,1024.57
2023-05-19T01:39:30.180Z,1024.58
2023-05-19T01:39:44.221Z,1024.58
2023-05-19T01:39:58.206Z,1024.58
2023-05-19T01:40:26.209Z,1024.59
2023-05-19T01:40:40.203Z,1024.59
2023-05-19T01:40:54.208Z,1024.59
2023-05-19T01:41:08.185Z,1024.59
2023-05-19T01:41:36.137Z,1024.60
2023-05-19T01:41:50.143Z,1024.59
2023-05-19T01:42:04.137Z,1024.60
2023-05-19T01:42:18.132Z,1024.61
2023-05-19T01:42:46.077Z,1024.62
2023-05-19T01:43:00.110Z,1024.60
2023-05-19T01:43:14.172Z,1024.60
2023-05-19T01:43:28.158Z,1024.59
2023-05-19T01:43:56.114Z,1024.59
2023-05-19T01:44:10.105Z,1024.59
2023-05-19T01:44:24.099Z,1024.59
2023-05-19T01:44:38.092Z,1024.61
2023-05-19T01:45:06.043Z,1024.61
2023-05-19T01:45:20.066Z,1024.62
2023-05-19T01:45:34.164Z,1024.62
2023-05-19T01:45:48.250Z,1024.61
2023-05-19T01:46:16.253Z,1024.59
2023-05-19T01:46:30.367Z,1024.58
2023-05-19T01:46:44.399Z,1024.58
2023-05-19T01:46:58.386Z,1024.60
2023-05-19T01:47:12.382Z,1024.60
2023-05-19T01:47:26.425Z,1024.60
2023-05-19T01:47:40.523Z,1024.60
2023-05-19T01:47:54.595Z,1024.59
2023-05-19T01:48:10.800Z,1024.58
2023-05-19T01:48:36.551Z,1024.59
2023-05-19T01:48:50.540Z,1024.59
2023-05-19T01:49:04.544Z,1024.57
2023-05-19T01:49:18.538Z,1024.58
2023-05-19T01:49:46.499Z,1024.57
2023-05-19T01:50:00.486Z,1024.58
2023-05-19T01:50:14.575Z,1024.57
2023-05-19T01:50:28.566Z,1024.57
2023-05-19T01:50:56.544Z,1024.55
2023-05-19T01:51:10.533Z,1024.57
2023-05-19T01:51:24.526Z,1024.58
2023-05-19T01:51:38.520Z,1024.58
2023-05-19T01:52:06.501Z,1024.58
2023-05-19T01:52:20.491Z,1024.58
2023-05-19T01:52:34.522Z,1024.59
2023-05-19T01:52:48.550Z,1024.58
2023-05-19T01:53:16.516Z,1024.59
2023-05-19T01:53:30.548Z,1024.59
2023-05-19T01:53:44.553Z,1024.59
2023-05-19T01:53:58.551Z,1024.60
2023-05-19T01:54:26.540Z,1024.59
2023-05-19T01:54:40.513Z,1024.60
2023-05-19T01:54:54.494Z,1024.61
2023-05-19T01:55:08.478Z,1024.61
2023-05-19T01:55:36.466Z,1024.60
2023-05-19T01:55:50.487Z,1024.60
2023-05-19T01:56:04.502Z,1024.59
2023-05-19T01:56:18.483Z,1024.60
2023-05-19T01:56:46.449Z,1024.59
2023-05-19T01:57:00.447Z,1024.60
2023-05-19T01:57:14.443Z,1024.60
2023-05-19T01:57:28.431Z,1024.60
2023-05-19T01:57:56.423Z,1024.60
2023-05-19T01:58:10.421Z,1024.60
2023-05-19T01:58:24.414Z,1024.60
2023-05-19T01:58:38.418Z,1024.60
2023-05-19T01:59:06.394Z,1024.58
2023-05-19T01:59:20.378Z,1024.58
2023-05-19T01:59:34.375Z,1024.58
2023-05-19T01:59:48.355Z,1024.59
2023-05-19T02:00:16.318Z,1024.57
2023-05-19T02:00:30.528Z,1024.57
2023-05-19T02:00:44.689Z,1024.57
2023-05-19T02:00:58.696Z,1024.56
2023-05-19T02:01:26.716Z,1024.56
2023-05-19T02:01:40.843Z,1024.57
2023-05-19T02:01:54.876Z,1024.57
2023-05-19T02:02:08.864Z,1024.56
2023-05-19T02:02:36.848Z,1024.56
2023-05-19T02:02:50.869Z,1024.57
2023-05-19T02:03:04.968Z,1024.56
2023-05-19T02:03:18.969Z,1024.56
2023-05-19T02:03:46.970Z,1024.56
2023-05-19T02:04:01.072Z,1024.56
2023-05-19T02:04:15.109Z,1024.57
2023-05-19T02:04:29.185Z,1024.57
2023-05-19T02:04:43.316Z,1024.57
2023-05-19T02:04:57.385Z,1024.56
2023-05-19T02:05:11.383Z,1024.56
2023-05-19T02:05:25.373Z,1024.56
2023-05-19T02:05:39.359Z,1024.57
2023-05-19T02:06:07.322Z,1024.57
2023-05-19T02:06:21.356Z,1024.58
2023-05-19T02:06:35.340Z,1024.57
2023-05-19T02:06:49.332Z,1024.58
2023-05-19T02:07:17.282Z,1024.58
2023-05-19T02:07:31.270Z,1024.58
2023-05-19T02:07:45.272Z,1024.58
2023-05-19T02:07:59.249Z,1024.58
2023-05-19T02:08:27.200Z,1024.59
2023-05-19T02:08:41.209Z,1024.59
2023-05-19T02:08:55.188Z,1024.58
2023-05-19T02:09:09.208Z,1024.58
2023-05-19T02:09:37.165Z,1024.56
2023-05-19T02:09:51.152Z,1024.56
2023-05-19T02:10:05.164Z,1024.56
2023-05-19T02:10:19.173Z,1024.57
2023-05-19T02:10:47.190Z,1024.57
2023-05-19T02:11:01.174Z,1024.55
2023-05-19T02:11:15.157Z,1024.56
2023-05-19T02:11:29.186Z,1024.56
2023-05-19T02:11:57.172Z,1024.55
2023-05-19T02:12:11.160Z,1024.55
2023-05-19T02:12:25.150Z,1024.55
2023-05-19T02:12:39.150Z,1024.54
2023-05-19T02:13:07.128Z,1024.52
2023-05-19T02:13:21.128Z,1024.52
2023-05-19T02:13:35.123Z,1024.52
2023-05-19T02:13:49.104Z,1024.52
2023-05-19T02:14:17.102Z,1024.51
2023-05-19T02:14:31.090Z,1024.53
2023-05-19T02:14:45.074Z,1024.52
2023-05-19T02:14:59.068Z,1024.51
2023-05-19T02:15:27.049Z,1024.50
2023-05-19T02:15:41.070Z,1024.49
2023-05-19T02:15:55.117Z,1024.50
2023-05-19T02:16:09.175Z,1024.50
2023-05-19T02:16:37.200Z,1024.49
2023-05-19T02:16:51.201Z,1024.49
2023-05-19T02:17:05.188Z,1024.49
2023-05-19T02:17:19.178Z,1024.49
2023-05-19T02:17:47.199Z,1024.46
2023-05-19T02:18:01.358Z,1024.47
2023-05-19T02:18:15.356Z,1024.47
2023-05-19T02:18:29.342Z,1024.46
2023-05-19T02:18:57.379Z,1024.46
2023-05-19T02:19:11.541Z,1024.46
2023-05-19T02:19:25.783Z,1024.46
2023-05-19T02:19:39.865Z,1024.45
2023-05-19T02:20:07.822Z,1024.44
2023-05-19T02:20:21.811Z,1024.43
2023-05-19T02:20:35.806Z,1024.43
2023-05-19T02:20:49.798Z,1024.44
2023-05-19T02:21:17.769Z,1024.44
2023-05-19T02:21:31.755Z,1024.43
2023-05-19T02:21:45.743Z,1024.42
2023-05-19T02:21:59.739Z,1024.42
2023-05-19T02:22:27.693Z,1024.43
2023-05-19T02:22:41.684Z,1024.43
2023-05-19T02:22:55.671Z,1024.43
2023-05-19T02:23:09.663Z,1024.43
2023-05-19T02:23:37.626Z,1024.41
2023-05-19T02:23:51.621Z,1024.42
2023-05-19T02:24:05.607Z,1024.41
2023-05-19T02:24:19.611Z,1024.42
2023-05-19T02:24:47.627Z,1024.42
2023-05-19T02:25:01.633Z,1024.43
2023-05-19T02:25:15.631Z,1024.41
2023-05-19T02:25:29.628Z,1024.42
2023-05-19T02:25:57.616Z,1024.41
2023-05-19T02:26:11.616Z,1024.41
2023-05-19T02:26:25.597Z,1024.41
2023-05-19T02:26:39.595Z,1024.40
2023-05-19T02:27:07.566Z,1024.40
2023-05-19T02:27:21.541Z,1024.41
2023-05-19T02:27:35.518Z,1024.41
2023-05-19T02:27:49.522Z,1024.42
2023-05-19T02:28:17.493Z,1024.41
2023-05-19T02:28:31.486Z,1024.40
2023-05-19T02:28:45.474Z,1024.40
2023-05-19T02:28:59.473Z,1024.41
2023-05-19T02:29:27.482Z,1024.39
2023-05-19T02:29:41.482Z,1024.39
2023-05-19T02:29:55.468Z,1024.39
2023-05-19T02:30:09.469Z,1024.39
2023-05-19T02:30:37.439Z,1024.38
2023-05-19T02:30:51.458Z,1024.37
2023-05-19T02:31:05.449Z,1024.37
2023-05-19T02:31:19.459Z,1024.37
2023-05-19T02:31:47.494Z,1024.36
2023-05-19T02:32:01.633Z,1024.37
2023-05-19T02:32:15.777Z,1024.38
2023-05-19T02:32:29.856Z,1024.37
2023-05-19T02:32:57.914Z,1024.37
2023-05-19T02:33:11.930Z,1024.37
2023-05-19T02:33:25.967Z,1024.38
2023-05-19T02:33:40.054Z,1024.38
2023-05-19T02:34:08.003Z,1024.37
2023-05-19T02:34:21.999Z,1024.38
2023-05-19T02:34:36.023Z,1024.38
2023-05-19T02:34:50.023Z,1024.39
2023-05-19T02:35:17.975Z,1024.39
2023-05-19T02:35:31.998Z,1024.38
2023-05-19T02:35:45.985Z,1024.39
2023-05-19T02:35:59.970Z,1024.38
2023-05-19T02:36:27.924Z,1024.40
2023-05-19T02:36:41.909Z,1024.39
2023-05-19T02:36:55.886Z,1024.38
2023-05-19T02:37:09.876Z,1024.38
2023-05-19T02:37:37.855Z,1024.37
2023-05-19T02:37:51.859Z,1024.38
2023-05-19T02:38:05.856Z,1024.39
2023-05-19T02:38:19.846Z,1024.39
2023-05-19T02:38:47.797Z,1024.40
2023-05-19T02:39:01.796Z,1024.39
2023-05-19T02:39:15.807Z,1024.38
2023-05-19T02:39:29.796Z,1024.39
2023-05-19T02:39:43.774Z,1024.39
2023-05-19T02:39:57.786Z,1024.38
2023-05-19T02:40:11.779Z,1024.38
2023-05-19T02:40:25.783Z,1024.36
2023-05-19T02:40:39.778Z,1024.36
2023-05-19T02:41:07.761Z,1024.35
2023-05-19T02:41:21.747Z,1024.35
2023-05-19T02:41:35.723Z,1024.36
2023-05-19T02:41:49.733Z,1024.35
2023-05-19T02:42:17.714Z,1024.36
2023-05-19T02:42:31.702Z,1024.35
2023-05-19T02:42:45.695Z,1024.36
2023-05-19T02:42:59.679Z,1024.35
2023-05-19T02:43:27.623Z,1024.36
2023-05-19T02:43:41.598Z,1024.35
2023-05-19T02:43:55.608Z,1024.34
2023-05-19T02:44:09.586Z,1024.35
2023-05-19T02:44:37.545Z,1024.33
2023-05-19T02:44:51.538Z,1024.34
2023-05-19T02:45:05.600Z,1024.34
2023-05-19T02:45:19.599Z,1024.34
2023-05-19T02:45:47.554Z,1024.34
2023-05-19T02:46:01.582Z,1024.33
2023-05-19T02:46:15.657Z,1024.33
2023-05-19T02:46:29.683Z,1024.34
2023-05-19T02:46:57.659Z,1024.34
2023-05-19T02:47:11.657Z,1024.34
2023-05-19T02:47:25.682Z,1024.34
2023-05-19T02:47:39.715Z,1024.35
2023-05-19T02:48:07.764Z,1024.34
2023-05-19T02:48:21.789Z,1024.33
2023-05-19T02:48:35.799Z,1024.34
2023-05-19T02:48:49.811Z,1024.34
2023-05-19T02:49:17.769Z,1024.34
2023-05-19T02:49:31.759Z,1024.34
2023-05-19T02:49:45.750Z,1024.34
2023-05-19T02:49:59.782Z,1024.35
2023-05-19T02:50:27.810Z,1024.36
2023-05-19T02:50:41.783Z,1024.35
2023-05-19T02:50:55.777Z,1024.35
2023-05-19T02:51:09.770Z,1024.34
2023-05-19T02:51:37.759Z,1024.32
2023-05-19T02:51:51.763Z,1024.32
2023-05-19T02:52:05.753Z,1024.33
2023-05-19T02:52:19.750Z,1024.34
2023-05-19T02:52:47.685Z,1024.32
2023-05-19T02:53:01.671Z,1024.31
2023-05-19T02:53:15.681Z,1024.29
2023-05-19T02:53:29.684Z,1024.28
2023-05-19T02:53:57.637Z,1024.31
2023-05-19T02:54:11.633Z,1024.29
2023-05-19T02:54:25.635Z,1024.28
2023-05-19T02:54:39.639Z,1024.29
2023-05-19T02:55:07.619Z,1024.29
2023-05-19T02:55:21.751Z,1024.28
2023-05-19T02:55:35.745Z,1024.25
2023-05-19T02:55:49.744Z,1024.24
2023-05-19T02:56:17.735Z,1024.27
2023-05-19T02:56:31.736Z,1024.26
2023-05-19T02:56:45.719Z,1024.25
2023-05-19T02:56:59.713Z,1024.25
2023-05-19T02:57:13.684Z,1024.25
2023-05-19T02:57:27.675Z,1024.24
2023-05-19T02:57:41.676Z,1024.24
2023-05-19T02:57:55.668Z,1024.23
2023-05-19T02:58:09.647Z,1024.23
2023-05-19T02:58:37.626Z,1024.24
2023-05-19T02:58:51.643Z,1024.22
2023-05-19T02:59:05.636Z,1024.23
2023-05-19T02:59:19.634Z,1024.23
2023-05-19T02:59:47.595Z,1024.21
2023-05-19T03:00:01.617Z,1024.20
2023-05-19T03:00:15.623Z,1024.21
2023-05-19T03:00:29.690Z,1024.21
2023-05-19T03:00:57.773Z,1024.21
2023-05-19T03:01:11.761Z,1024.19
2023-05-19T03:01:25.759Z,1024.20
2023-05-19T03:01:39.804Z,1024.19
2023-05-19T03:02:07.860Z,1024.18
2023-05-19T03:02:21.902Z,1024.18
2023-05-19T03:02:35.970Z,1024.17
2023-05-19T03:02:50.130Z,1024.16
2023-05-19T03:03:18.306Z,1024.16
2023-05-19T03:03:32.408Z,1024.15
2023-05-19T03:03:46.627Z,1024.14
2023-05-19T03:04:00.800Z,1024.14
2023-05-19T03:04:28.833Z,1024.14
2023-05-19T03:04:42.856Z,1024.14
2023-05-19T03:04:56.854Z,1024.14
2023-05-19T03:05:10.876Z,1024.13
2023-05-19T03:05:38.862Z,1024.14
2023-05-19T03:05:52.870Z,1024.14
2023-05-19T03:06:06.867Z,1024.14
2023-05-19T03:06:20.854Z,1024.14
2023-05-19T03:06:48.831Z,1024.14
2023-05-19T03:07:02.814Z,1024.13
2023-05-19T03:07:16.826Z,1024.11
2023-05-19T03:07:30.804Z,1024.11
2023-05-19T03:07:58.796Z,1024.11
2023-05-19T03:08:12.794Z,1024.10
2023-05-19T03:08:26.778Z,1024.10
2023-05-19T03:08:42.428Z,1024.10
2023-05-19T03:09:07.945Z,1024.11
2023-05-19T03:09:21.956Z,1024.12
2023-05-19T03:09:35.959Z,1024.11
2023-05-19T03:09:49.977Z,1024.12
2023-05-19T03:10:17.942Z,1024.12
2023-05-19T03:10:32.076Z,1024.11
2023-05-19T03:10:46.185Z,1024.11
2023-05-19T03:11:00.215Z,1024.11
2023-05-19T03:11:28.189Z,1024.11
2023-05-19T03:11:42.184Z,1024.11
2023-05-19T03:11:56.176Z,1024.12
2023-05-19T03:12:10.172Z,1024.11
2023-05-19T03:12:38.150Z,1024.11
2023-05-19T03:12:52.165Z,1024.11
2023-05-19T03:13:06.156Z,1024.11
2023-05-19T03:13:20.152Z,1024.11
2023-05-19T03:13:48.150Z,1024.10
2023-05-19T03:14:02.140Z,1024.12
2023-05-19T03:14:16.125Z,1024.12
2023-05-19T03:14:30.134Z,1024.11
2023-05-19T03:14:58.131Z,1024.10
2023-05-19T03:15:12.112Z,1024.10
2023-05-19T03:15:26.102Z,1024.09
2023-05-19T03:15:40.163Z,1024.09
2023-05-19T03:16:08.361Z,1024.08
2023-05-19T03:16:22.588Z,1024.08
2023-05-19T03:16:36.717Z,1024.08
2023-05-19T03:16:50.925Z,1024.10
2023-05-19T03:17:19.076Z,1024.06
2023-05-19T03:17:33.238Z,1024.06
2023-05-19T03:17:47.424Z,1024.06
2023-05-19T03:18:01.572Z,1024.07
2023-05-19T03:18:29.569Z,1024.05
2023-05-19T03:18:43.673Z,1024.04
2023-05-19T03:18:57.717Z,1024.04
2023-05-19T03:19:11.742Z,1024.03
2023-05-19T03:19:39.745Z,1024.02
2023-05-19T03:19:53.754Z,1024.02
2023-05-19T03:20:07.782Z,1024.03
2023-05-19T03:20:21.766Z,1024.03
2023-05-19T03:20:49.734Z,1024.03
2023-05-19T03:21:03.837Z,1024.02
2023-05-19T03:21:17.839Z,1024.02
2023-05-19T03:21:31.849Z,1024.01
2023-05-19T03:21:59.831Z,1024.02
2023-05-19T03:22:13.810Z,1024.02
2023-05-19T03:22:27.801Z,1024.01
2023-05-19T03:22:41.779Z,1024.01
2023-05-19T03:22:55.765Z,1024.02
2023-05-19T03:23:09.760Z,1024.03
2023-05-19T03:23:23.753Z,1024.02
2023-05-19T03:23:37.728Z,1024.00
2023-05-19T03:23:51.712Z,1024.01
2023-05-19T03:24:19.657Z,1024.02
2023-05-19T03:24:33.643Z,1024.00
2023-05-19T03:24:47.633Z,1024.01
2023-05-19T03:25:01.620Z,1024.01
2023-05-19T03:25:29.606Z,1024.02
2023-05-19T03:25:43.609Z,1024.03
2023-05-19T03:25:57.591Z,1024.01
2023-05-19T03:26:11.580Z,1024.02
2023-05-19T03:26:39.560Z,1024.02
2023-05-19T03:26:53.542Z,1024.02
2023-05-19T03:27:07.540Z,1024.02
2023-05-19T03:27:21.535Z,1024.02
2023-05-19T03:27:49.500Z,1024.01
2023-05-19T03:28:03.479Z,1024.02
2023-05-19T03:28:17.458Z,1024.02
2023-05-19T03:28:31.521Z,1024.02
2023-05-19T03:28:59.519Z,1024.02